Time;durP1;ratioP1;P1;durP2;ratioP2;P2;SDS_P1;SDS_P2;PMS_P1;PMS_P2;Temp;Humidity;BMP_temperature;BMP_pressure;BME280_temperature;BME280_humidity;BME280_pressure;Samples;Min_cycle;Max_cycle;Signal;HPM_P1;HPM_P2
2022/07/17 00:00:58;;;;;;;4.07;2.80;;;;;;;9.44;100.00;99275.91;2607514;28;20480;-75
2022/07/17 00:02:13;;;;;;;4.68;3.05;;;;;;;9.57;100.00;99285.34;2608744;28;20041;-75
2022/07/17 00:03:29;;;;;;;4.07;2.90;;;;;;;9.59;100.00;99278.34;2608899;28;20059;-76
2022/07/17 00:04:44;;;;;;;4.40;2.58;;;;;;;9.59;100.00;99277.47;2608250;28;20049;-75
2022/07/17 00:06:00;;;;;;;5.80;2.72;;;;;;;9.60;100.00;99281.81;2608470;28;20219;-76
2022/07/17 00:07:15;;;;;;;5.65;2.70;;;;;;;9.58;100.00;99276.63;2608793;28;20049;-78
2022/07/17 00:08:31;;;;;;;2.78;2.35;;;;;;;9.53;100.00;99277.56;2608575;28;20044;-75
2022/07/17 00:09:47;;;;;;;14.85;2.67;;;;;;;9.52;100.00;99276.66;2608932;28;20050;-75
2022/07/17 00:11:03;;;;;;;5.80;2.53;;;;;;;9.40;100.00;99280.28;2609055;28;20091;-75
2022/07/17 00:12:19;;;;;;;4.60;2.70;;;;;;;9.34;100.00;99282.94;2608497;28;20076;-75
2022/07/17 00:13:34;;;;;;;8.27;3.00;;;;;;;9.28;100.00;99285.63;2609098;28;20487;-75
2022/07/17 00:14:50;;;;;;;4.68;3.03;;;;;;;9.31;100.00;99283.84;2608283;28;20115;-75
2022/07/17 00:16:06;;;;;;;5.40;3.15;;;;;;;9.27;100.00;99281.28;2608244;28;20045;-75
2022/07/17 00:17:21;;;;;;;3.97;2.85;;;;;;;9.26;100.00;99284.78;2608189;28;20057;-75
2022/07/17 00:18:37;;;;;;;5.25;2.90;;;;;;;9.27;100.00;99291.72;2608910;28;20059;-75
2022/07/17 00:19:53;;;;;;;3.88;2.47;;;;;;;9.25;100.00;99288.28;2609007;28;20530;-75
2022/07/17 00:21:08;;;;;;;7.13;2.88;;;;;;;9.22;100.00;99294.38;2609142;28;20045;-75
2022/07/17 00:22:24;;;;;;;3.63;3.10;;;;;;;9.22;100.00;99294.38;2608737;28;20044;-75
2022/07/17 00:23:39;;;;;;;5.13;2.85;;;;;;;9.22;100.00;99294.38;2608701;28;20045;-80
2022/07/17 00:24:55;;;;;;;4.28;3.00;;;;;;;9.21;100.00;99295.25;2608819;28;20060;-75
2022/07/17 00:26:11;;;;;;;4.00;3.08;;;;;;;9.18;100.00;99296.16;2608425;28;20053;-75
2022/07/17 00:27:26;;;;;;;4.35;3.20;;;;;;;9.12;100.00;99293.59;2608453;28;21036;-75
2022/07/17 00:28:42;;;;;;;5.00;3.65;;;;;;;9.10;100.00;99295.38;2607863;28;20068;-75
2022/07/17 00:29:58;;;;;;;4.43;2.95;;;;;;;9.08;100.00;99286.69;2609228;28;20102;-75
2022/07/17 00:31:13;;;;;;;5.25;2.95;;;;;;;9.07;100.00;99295.38;2607897;28;20079;-75
2022/07/17 00:32:29;;;;;;;4.82;3.08;;;;;;;8.89;100.00;99289.41;2608369;28;20045;-75
2022/07/17 00:33:44;;;;;;;6.28;2.95;;;;;;;8.90;100.00;99296.38;2608600;28;20052;-75
2022/07/17 00:35:00;;;;;;;3.67;2.90;;;;;;;8.87;100.00;99295.50;2608712;28;20082;-76
2022/07/17 00:36:16;;;;;;;3.95;2.92;;;;;;;8.75;100.00;99297.38;2608871;28;20056;-75
2022/07/17 00:37:38;;;;;;;4.38;3.25;;;;;;;8.80;100.00;99301.69;2607930;28;20049;-76
2022/07/17 00:38:53;;;;;;;4.47;3.00;;;;;;;8.78;100.00;99299.06;2608722;28;20040;-75
2022/07/17 00:40:12;;;;;;;5.13;3.30;;;;;;;8.83;100.00;99296.41;2608633;28;20200;-75
2022/07/17 00:41:28;;;;;;;4.82;3.15;;;;;;;8.87;100.00;99301.63;2608734;28;20045;-75
2022/07/17 00:42:43;;;;;;;4.00;2.83;;;;;;;8.87;100.00;99299.00;2608535;28;20208;-77
2022/07/17 00:44:10;;;;;;;4.53;2.97;;;;;;;8.87;100.00;99303.34;2608761;28;20045;-75
2022/07/17 00:45:26;;;;;;;2.90;2.53;;;;;;;8.80;100.00;99302.56;2608537;28;20087;-75
2022/07/17 00:46:43;;;;;;;4.63;2.90;;;;;;;8.71;100.00;99306.06;2607354;28;20041;-75
2022/07/17 00:48:02;;;;;;;4.18;2.80;;;;;;;8.74;100.00;99310.41;2607985;28;20144;-75
2022/07/17 00:49:18;;;;;;;3.78;2.85;;;;;;;8.72;100.00;99297.34;2608659;28;20052;-75
2022/07/17 00:50:36;;;;;;;4.10;2.95;;;;;;;8.70;100.00;99306.09;2608104;28;20044;-75
2022/07/17 00:51:52;;;;;;;5.88;2.78;;;;;;;8.64;100.00;99301.78;2608344;28;20396;-76
2022/07/17 00:53:10;;;;;;;5.07;2.90;;;;;;;8.70;100.00;99298.25;2608528;28;20052;-75
2022/07/17 00:54:26;;;;;;;3.95;2.50;;;;;;;8.74;100.00;99307.81;2608687;28;20521;-76
2022/07/17 00:55:44;;;;;;;5.68;2.42;;;;;;;8.68;100.00;99302.63;2608088;28;20048;-75
2022/07/17 00:57:05;;;;;;;4.15;2.50;;;;;;;8.58;100.00;99312.25;2608411;28;20064;-75
2022/07/17 00:58:23;;;;;;;4.75;2.80;;;;;;;8.44;100.00;99307.94;2608468;28;20099;-75
2022/07/17 00:59:39;;;;;;;4.93;2.63;;;;;;;8.38;100.00;99310.59;2608096;28;20053;-75
2022/07/17 01:00:55;;;;;;;3.15;2.80;;;;;;;8.41;100.00;99309.72;2608596;28;20522;-79
2022/07/17 01:02:13;;;;;;;4.43;2.70;;;;;;;8.40;100.00;99314.06;2607905;28;20049;-75
2022/07/17 01:03:29;;;;;;;4.18;2.58;;;;;;;8.40;100.00;99310.59;2608535;28;20132;-79
2022/07/17 01:04:44;;;;;;;4.68;2.83;;;;;;;8.39;100.00;99314.06;2608427;28;20053;-75
2022/07/17 01:06:01;;;;;;;6.38;2.75;;;;;;;8.41;100.00;99315.78;2607920;28;20053;-80
2022/07/17 01:07:18;;;;;;;4.30;3.10;;;;;;;8.41;100.00;99310.56;2608405;28;20052;-75
2022/07/17 01:08:34;;;;;;;5.75;2.92;;;;;;;8.40;100.00;99315.81;2607952;28;20099;-75
2022/07/17 01:09:50;;;;;;;6.30;3.30;;;;;;;8.42;100.00;99316.66;2608009;28;20053;-75
2022/07/17 01:11:09;;;;;;;3.67;2.83;;;;;;;8.42;100.00;99322.72;2608535;28;20053;-75
2022/07/17 01:12:24;;;;;;;3.58;2.85;;;;;;;8.39;100.00;99319.28;2608386;28;20122;-74
2022/07/17 01:13:40;;;;;;;3.03;2.58;;;;;;;8.36;100.00;99328.00;2608094;28;20069;-73
2022/07/17 01:14:57;;;;;;;4.78;2.80;;;;;;;8.32;100.00;99321.91;2608297;28;20053;-73
2022/07/17 01:16:13;;;;;;;4.75;2.50;;;;;;;8.29;100.00;99329.75;2607931;28;20618;-73
2022/07/17 01:17:30;;;;;;;3.45;2.30;;;;;;;8.33;100.00;99323.66;2607955;28;20045;-74
2022/07/17 01:18:45;;;;;;;4.15;3.08;;;;;;;8.33;100.00;99326.25;2608060;28;20037;-73
2022/07/17 01:20:03;;;;;;;5.05;2.88;;;;;;;8.32;100.00;99327.13;2608306;28;20182;-74
2022/07/17 01:21:19;;;;;;;6.80;2.63;;;;;;;8.32;100.00;99323.69;2607903;28;20063;-78
2022/07/17 01:22:46;;;;;;;4.43;2.90;;;;;;;8.26;100.00;99324.56;2608690;28;20049;-74
2022/07/17 01:24:02;;;;;;;4.25;2.70;;;;;;;8.26;100.00;99331.50;2608166;28;20048;-74
2022/07/17 01:25:22;;;;;;;4.95;3.05;;;;;;;8.27;100.00;99328.03;2608332;28;20399;-73
2022/07/17 01:26:47;;;;;;;4.55;2.75;;;;;;;8.21;100.00;99336.75;2608228;28;20071;-74
2022/07/17 01:28:03;;;;;;;5.43;3.08;;;;;;;8.25;100.00;99324.56;2607798;28;20100;-73
2022/07/17 01:29:19;;;;;;;4.22;2.95;;;;;;;8.21;100.00;99331.53;2608272;28;20466;-73
2022/07/17 01:30:35;;;;;;;3.50;2.88;;;;;;;8.17;100.00;99327.19;2608132;28;20100;-74
2022/07/17 01:31:51;;;;;;;3.65;2.65;;;;;;;8.19;100.00;99331.56;2607734;28;20593;-73
2022/07/17 01:33:06;;;;;;;5.30;2.67;;;;;;;8.19;100.00;99328.94;2608041;28;20052;-74
2022/07/17 01:34:22;;;;;;;5.03;2.88;;;;;;;8.12;100.00;99324.59;2607939;28;20056;-74
2022/07/17 01:35:37;;;;;;;4.22;2.80;;;;;;;8.13;100.00;99326.34;2607749;28;20059;-73
2022/07/17 01:36:53;;;;;;;4.13;3.58;;;;;;;8.11;100.00;99327.25;2607169;28;20316;-75
2022/07/17 01:38:08;;;;;;;4.53;2.90;;;;;;;8.09;100.00;99335.06;2608383;28;20411;-75
2022/07/17 01:40:58;;;;;;;3.45;3.08;;;;;;;8.06;100.00;99333.31;2607855;28;20053;-75
2022/07/17 01:42:14;;;;;;;3.65;2.88;;;;;;;8.02;100.00;99331.59;2607828;28;20040;-75
2022/07/17 01:43:29;;;;;;;4.22;3.00;;;;;;;8.01;100.00;99332.47;2608273;28;20095;-76
2022/07/17 01:44:45;;;;;;;4.60;2.72;;;;;;;7.98;100.00;99329.88;2608035;28;20045;-75
2022/07/17 01:46:00;;;;;;;4.25;3.15;;;;;;;7.97;100.00;99327.28;2607714;28;20053;-75
2022/07/17 01:47:18;;;;;;;5.28;3.00;;;;;;;7.96;100.00;99336.84;2607532;28;20090;-76
2022/07/17 01:48:33;;;;;;;3.45;2.90;;;;;;;7.98;100.00;99334.22;2607433;28;20094;-75
2022/07/17 01:49:59;;;;;;;6.88;3.00;;;;;;;7.97;100.00;99335.97;2608308;28;20558;-77
2022/07/17 01:51:14;;;;;;;4.40;2.90;;;;;;;8.01;100.00;99337.69;2607989;28;20056;-76
2022/07/17 01:52:30;;;;;;;4.70;2.85;;;;;;;8.03;100.00;99343.75;2607772;28;20122;-76
2022/07/17 01:53:45;;;;;;;3.13;2.83;;;;;;;8.02;100.00;99339.41;2607848;28;20491;-75
2022/07/17 01:55:01;;;;;;;5.65;2.95;;;;;;;8.03;100.00;99335.94;2607052;28;20048;-75
2022/07/17 01:56:17;;;;;;;7.32;3.15;;;;;;;8.03;100.00;99335.94;2601113;28;20142;-76
2022/07/17 01:57:33;;;;;;;3.15;2.70;;;;;;;8.09;100.00;99334.19;2607031;28;20281;-75
2022/07/17 01:58:48;;;;;;;4.55;2.83;;;;;;;8.08;100.00;99327.22;2607392;28;20194;-78
2022/07/17 02:00:08;;;;;;;4.53;2.90;;;;;;;8.04;100.00;99332.47;2606973;28;20139;-75
2022/07/17 02:01:24;;;;;;;7.00;2.70;;;;;;;8.05;100.00;99330.72;2607228;28;20060;-75
2022/07/17 02:02:39;;;;;;;3.03;2.58;;;;;;;8.03;100.00;99330.72;2607995;28;20479;-75
2022/07/17 02:03:55;;;;;;;5.85;3.00;;;;;;;7.99;100.00;99329.00;2607551;28;20049;-75
2022/07/17 02:05:11;;;;;;;7.03;2.90;;;;;;;7.96;100.00;99333.34;2607473;28;20055;-75
2022/07/17 02:06:26;;;;;;;3.75;2.50;;;;;;;7.96;100.00;99334.25;2607515;28;20056;-76
2022/07/17 02:07:44;;;;;;;5.40;2.53;;;;;;;7.95;100.00;99335.09;2606384;28;20049;-75
2022/07/17 02:08:59;;;;;;;2.80;2.40;;;;;;;7.94;100.00;99341.16;2607460;28;20074;-75
2022/07/17 02:10:15;;;;;;;2.85;2.40;;;;;;;7.90;100.00;99339.47;2606465;28;20052;-75
2022/07/17 02:11:30;;;;;;;3.45;2.60;;;;;;;7.87;100.00;99336.88;2596999;28;20049;-75
2022/07/17 02:12:46;;;;;;;3.58;2.42;;;;;;;7.88;100.00;99338.59;2603402;28;20095;-76
2022/07/17 02:14:02;;;;;;;3.70;2.65;;;;;;;7.87;100.00;99329.03;2607665;28;20053;-76
2022/07/17 02:15:17;;;;;;;4.30;2.40;;;;;;;7.85;100.00;99339.47;2595894;28;20143;-74
2022/07/17 02:16:33;;;;;;;3.17;2.50;;;;;;;7.85;100.00;99341.22;2600922;28;20506;-76
2022/07/17 02:17:48;;;;;;;3.67;2.50;;;;;;;7.82;100.00;99343.81;2607495;28;20045;-74
2022/07/17 02:19:04;;;;;;;3.63;2.33;;;;;;;7.80;100.00;99341.22;2607835;28;20059;-74
2022/07/17 02:20:20;;;;;;;2.50;2.10;;;;;;;7.78;100.00;99342.97;2607640;28;20051;-74
2022/07/17 02:21:35;;;;;;;3.97;2.60;;;;;;;7.74;100.00;99342.09;2607706;28;20045;-74
2022/07/17 02:22:51;;;;;;;4.95;2.28;;;;;;;7.68;100.00;99339.50;2607304;28;20144;-73
2022/07/17 02:24:07;;;;;;;3.58;2.35;;;;;;;7.64;100.00;99340.38;2607353;28;20403;-73
2022/07/17 02:25:22;;;;;;;4.85;2.35;;;;;;;7.63;100.00;99336.03;2606386;28;20059;-74
2022/07/17 02:26:38;;;;;;;3.30;2.63;;;;;;;7.58;100.00;99343.00;2606438;28;20637;-74
2022/07/17 02:27:54;;;;;;;4.25;2.50;;;;;;;7.54;100.00;99338.63;2607848;28;20057;-74
2022/07/17 02:29:10;;;;;;;3.45;2.42;;;;;;;7.52;100.00;99345.59;2607320;28;20041;-75
2022/07/17 02:30:25;;;;;;;5.32;2.70;;;;;;;7.51;100.00;99343.88;2607635;28;20064;-73
2022/07/17 02:31:41;;;;;;;2.60;2.33;;;;;;;7.45;100.00;99347.34;2607630;28;20045;-74
2022/07/17 02:32:57;;;;;;;3.15;2.40;;;;;;;7.33;100.00;99345.63;2607536;28;20136;-74
2022/07/17 02:34:12;;;;;;;3.03;2.58;;;;;;;7.27;100.00;99343.03;2606913;28;20049;-74
2022/07/17 02:35:28;;;;;;;3.88;2.35;;;;;;;7.28;100.00;99348.22;2607115;28;20055;-74
2022/07/17 02:36:43;;;;;;;3.13;2.35;;;;;;;7.30;100.00;99351.69;2606776;28;20065;-74
2022/07/17 02:37:59;;;;;;;3.42;2.58;;;;;;;7.22;100.00;99343.03;2607808;28;20049;-73
2022/07/17 02:39:15;;;;;;;4.35;2.83;;;;;;;7.20;100.00;99349.97;2607293;28;20045;-73
2022/07/17 02:40:30;;;;;;;4.68;2.50;;;;;;;7.17;100.00;99353.44;2607394;28;20492;-75
2022/07/17 02:41:46;;;;;;;4.30;2.58;;;;;;;7.18;100.00;99339.53;2607600;28;20471;-75
2022/07/17 02:43:02;;;;;;;3.90;2.47;;;;;;;7.20;100.00;99348.22;2607552;28;20048;-75
2022/07/17 02:44:17;;;;;;;6.45;3.03;;;;;;;7.20;100.00;99343.00;2606926;28;20057;-75
2022/07/17 02:45:33;;;;;;;3.88;2.67;;;;;;;7.21;100.00;99347.34;2607714;28;20052;-75
2022/07/17 02:46:48;;;;;;;4.15;2.50;;;;;;;7.26;100.00;99347.34;2607653;28;20053;-76
2022/07/17 02:48:04;;;;;;;3.70;2.60;;;;;;;7.22;100.00;99343.03;2607186;28;20060;-75
2022/07/17 02:49:20;;;;;;;3.03;2.50;;;;;;;7.25;100.00;99345.63;2607003;28;20050;-75
2022/07/17 02:50:35;;;;;;;3.97;2.63;;;;;;;7.30;100.00;99343.03;2607441;28;20052;-74
2022/07/17 02:51:51;;;;;;;3.88;2.20;;;;;;;7.32;100.00;99341.28;2606471;28;20048;-75
2022/07/17 02:53:07;;;;;;;5.90;2.50;;;;;;;7.30;100.00;99338.66;2607123;28;20053;-73
2022/07/17 02:54:23;;;;;;;4.38;2.47;;;;;;;7.38;100.00;99350.84;2607543;28;20048;-74
2022/07/17 02:55:39;;;;;;;4.45;2.35;;;;;;;7.39;100.00;99353.41;2607455;28;20041;-74
2022/07/17 02:56:54;;;;;;;3.90;2.25;;;;;;;7.42;100.00;99343.03;2607119;28;20103;-73
2022/07/17 02:58:10;;;;;;;4.35;2.33;;;;;;;7.43;100.00;99349.97;2606733;28;20053;-74
2022/07/17 02:59:26;;;;;;;3.90;2.72;;;;;;;7.45;100.00;99340.41;2607725;28;20479;-74
2022/07/17 03:00:42;;;;;;;3.92;2.45;;;;;;;7.47;100.00;99354.28;2607194;28;20080;-74
2022/07/17 03:01:57;;;;;;;3.08;2.05;;;;;;;7.45;100.00;99343.00;2607788;28;20064;-74
2022/07/17 03:03:14;;;;;;;3.67;2.65;;;;;;;7.46;100.00;99343.88;2607188;28;20183;-75
2022/07/17 03:04:29;;;;;;;3.60;2.30;;;;;;;7.47;100.00;99346.47;2607289;28;20060;-73
2022/07/17 03:05:45;;;;;;;3.83;2.50;;;;;;;7.42;100.00;99349.94;2607547;28;20052;-74
2022/07/17 03:07:01;;;;;;;3.58;2.20;;;;;;;7.39;100.00;99350.81;2607284;28;20053;-74
2022/07/17 03:08:17;;;;;;;3.40;2.25;;;;;;;7.37;100.00;99354.31;2607353;28;20605;-73
2022/07/17 03:09:32;;;;;;;7.75;2.42;;;;;;;7.28;100.00;99355.19;2607149;28;20099;-73
2022/07/17 03:10:48;;;;;;;3.90;2.30;;;;;;;7.27;100.00;99356.06;2606836;28;20124;-74
2022/07/17 03:12:04;;;;;;;4.07;2.20;;;;;;;7.18;100.00;99354.28;2607238;28;20410;-73
2022/07/17 03:13:20;;;;;;;4.07;2.70;;;;;;;7.16;100.00;99356.91;2606742;28;20083;-73
2022/07/17 03:14:35;;;;;;;2.95;2.47;;;;;;;7.10;100.00;99362.09;2607315;28;20075;-74
2022/07/17 03:15:50;;;;;;;3.17;2.13;;;;;;;7.02;100.00;99358.63;2607407;28;20062;-73
2022/07/17 03:17:06;;;;;;;3.70;2.60;;;;;;;7.04;100.00;99357.75;2607114;28;20049;-73
2022/07/17 03:18:22;;;;;;;4.70;2.67;;;;;;;7.00;100.00;99356.00;2607734;28;20076;-74
2022/07/17 03:19:38;;;;;;;4.68;2.40;;;;;;;7.01;100.00;99360.34;2606907;28;20067;-73
2022/07/17 03:20:53;;;;;;;4.88;2.30;;;;;;;6.97;100.00;99365.53;2606785;28;20286;-73
2022/07/17 03:22:09;;;;;;;3.25;2.45;;;;;;;6.93;100.00;99367.28;2607439;28;20053;-74
2022/07/17 03:23:25;;;;;;;3.28;2.17;;;;;;;6.87;100.00;99368.16;2607012;28;20480;-74
2022/07/17 03:24:40;;;;;;;5.38;2.55;;;;;;;6.89;100.00;99362.94;2607236;28;20068;-75
2022/07/17 03:25:56;;;;;;;4.63;2.53;;;;;;;6.85;100.00;99362.09;2607396;28;20057;-76
2022/07/17 03:27:12;;;;;;;3.50;2.50;;;;;;;6.83;100.00;99360.31;2607020;28;20517;-75
2022/07/17 03:28:28;;;;;;;3.30;2.45;;;;;;;6.89;100.00;99369.03;2607595;28;20522;-75
2022/07/17 03:29:44;;;;;;;2.90;2.30;;;;;;;6.96;100.00;99363.81;2607229;28;20594;-75
2022/07/17 03:31:00;;;;;;;4.57;2.30;;;;;;;7.01;100.00;99359.50;2607181;28;20064;-76
2022/07/17 03:32:15;;;;;;;4.72;2.50;;;;;;;7.05;100.00;99362.13;2606722;28;20411;-75
2022/07/17 03:33:31;;;;;;;4.15;2.75;;;;;;;7.12;100.00;99360.34;2607426;28;20057;-75
2022/07/17 03:34:47;;;;;;;3.55;2.25;;;;;;;7.13;100.00;99362.13;2607116;28;20049;-76
2022/07/17 03:36:02;;;;;;;3.47;2.40;;;;;;;7.08;100.00;99361.22;2607488;28;20048;-75
2022/07/17 03:37:18;;;;;;;4.78;2.28;;;;;;;7.13;100.00;99366.44;2608814;28;20049;-75
2022/07/17 03:38:34;;;;;;;5.32;2.50;;;;;;;7.17;100.00;99362.97;2608795;28;20049;-75
2022/07/17 03:39:49;;;;;;;2.65;2.20;;;;;;;7.16;100.00;99356.03;2609295;28;20049;-75
2022/07/17 03:41:05;;;;;;;3.42;2.33;;;;;;;7.21;100.00;99362.97;2609858;28;20055;-75
2022/07/17 03:42:20;;;;;;;3.45;2.17;;;;;;;7.19;100.00;99367.31;2609320;28;20051;-75
2022/07/17 03:43:36;;;;;;;2.80;2.40;;;;;;;7.17;100.00;99362.97;2608934;28;20266;-75
2022/07/17 03:44:51;;;;;;;8.77;2.72;;;;;;;7.17;100.00;99358.63;2609228;28;20045;-76
2022/07/17 03:46:07;;;;;;;6.63;2.40;;;;;;;7.15;100.00;99365.59;2609222;28;20492;-75
2022/07/17 03:47:23;;;;;;;3.38;2.00;;;;;;;7.15;100.00;99372.53;2608938;28;20056;-76
2022/07/17 03:48:38;;;;;;;4.18;2.25;;;;;;;7.13;100.00;99369.94;2609172;28;20459;-74
2022/07/17 03:49:54;;;;;;;3.20;2.10;;;;;;;7.14;100.00;99368.19;2608886;28;20049;-73
2022/07/17 03:51:09;;;;;;;2.83;2.38;;;;;;;7.09;100.00;99365.56;2609006;28;21124;-74
2022/07/17 03:52:25;;;;;;;3.20;2.40;;;;;;;7.08;100.00;99363.84;2608615;28;20076;-75
2022/07/17 03:53:41;;;;;;;2.72;2.28;;;;;;;7.10;100.00;99366.44;2609185;28;20053;-74
2022/07/17 03:54:56;;;;;;;4.85;2.22;;;;;;;7.04;100.00;99372.50;2609209;28;20050;-74
2022/07/17 03:56:12;;;;;;;2.78;2.35;;;;;;;7.02;100.00;99369.91;2608560;28;20041;-74
2022/07/17 03:57:27;;;;;;;4.53;2.38;;;;;;;7.05;100.00;99364.72;2608226;28;20044;-73
2022/07/17 03:58:43;;;;;;;2.33;2.10;;;;;;;7.03;100.00;99365.56;2609308;28;20710;-74
2022/07/17 03:59:59;;;;;;;5.28;2.40;;;;;;;6.95;100.00;99365.56;2608968;28;20052;-74
2022/07/17 04:01:14;;;;;;;4.72;2.30;;;;;;;7.03;100.00;99371.63;2608965;28;20040;-74
2022/07/17 04:02:30;;;;;;;3.63;2.28;;;;;;;7.11;100.00;99363.81;2609091;28;20083;-74
2022/07/17 04:03:46;;;;;;;4.47;2.60;;;;;;;7.16;100.00;99366.44;2608865;28;20453;-74
2022/07/17 04:05:01;;;;;;;4.70;2.50;;;;;;;7.19;100.00;99367.31;2608694;28;20053;-74
2022/07/17 04:06:17;;;;;;;3.35;2.10;;;;;;;7.18;100.00;99362.09;2608408;28;20049;-74
2022/07/17 04:07:33;;;;;;;3.60;2.33;;;;;;;7.22;100.00;99366.47;2609090;28;20048;-74
2022/07/17 04:08:48;;;;;;;4.50;2.25;;;;;;;7.23;100.00;99368.19;2608312;28;20045;-74
2022/07/17 04:10:05;;;;;;;4.00;2.25;;;;;;;7.26;100.00;99373.41;2608196;28;20084;-73
2022/07/17 04:11:21;;;;;;;4.90;2.20;;;;;;;7.32;100.00;99372.53;2608064;28;20410;-76
2022/07/17 04:12:37;;;;;;;3.13;2.53;;;;;;;7.36;100.00;99374.25;2609345;28;20053;-73
2022/07/17 04:13:52;;;;;;;4.75;2.47;;;;;;;7.37;100.00;99370.78;2608392;28;20541;-76
2022/07/17 04:15:09;;;;;;;5.38;3.13;;;;;;;7.40;100.00;99377.75;2608819;28;20052;-75
2022/07/17 04:16:24;;;;;;;3.78;2.38;;;;;;;7.41;100.00;99377.75;2608266;28;20059;-75
2022/07/17 04:17:40;;;;;;;4.20;2.58;;;;;;;7.44;100.00;99374.25;2608734;28;20415;-75
2022/07/17 04:18:55;;;;;;;5.40;2.35;;;;;;;7.51;100.00;99378.63;2608715;28;20087;-76
2022/07/17 04:20:11;;;;;;;3.15;2.05;;;;;;;7.55;100.00;99369.06;2607602;28;20052;-75
2022/07/17 04:21:26;;;;;;;2.70;2.05;;;;;;;7.56;100.00;99370.81;2607620;28;20060;-75
2022/07/17 04:22:42;;;;;;;4.45;2.50;;;;;;;7.57;100.00;99372.53;2608463;28;20049;-75
2022/07/17 04:23:58;;;;;;;4.07;2.22;;;;;;;7.59;100.00;99365.59;2607645;28;20068;-75
2022/07/17 04:25:13;;;;;;;4.85;2.50;;;;;;;7.60;100.00;99377.75;2608182;28;20041;-75
2022/07/17 04:26:29;;;;;;;4.68;2.90;;;;;;;7.61;100.00;99372.53;2607992;28;20045;-75
2022/07/17 04:27:44;;;;;;;4.97;2.53;;;;;;;7.64;100.00;99379.47;2607018;28;20634;-74
2022/07/17 04:29:00;;;;;;;4.38;2.67;;;;;;;7.63;100.00;99368.19;2607464;28;20063;-74
2022/07/17 04:30:15;;;;;;;4.55;2.88;;;;;;;7.66;100.00;99375.13;2608878;28;20056;-73
2022/07/17 04:31:31;;;;;;;4.65;2.67;;;;;;;7.68;100.00;99375.13;2608859;28;20123;-74
2022/07/17 04:32:46;;;;;;;4.78;2.60;;;;;;;7.71;100.00;99381.22;2608772;28;20049;-74
2022/07/17 04:34:02;;;;;;;3.75;2.53;;;;;;;7.84;100.00;99376.84;2608450;28;21084;-74
2022/07/17 04:35:18;;;;;;;3.75;2.50;;;;;;;8.12;100.00;99373.31;2608481;28;20052;-74
2022/07/17 04:36:33;;;;;;;2.72;2.35;;;;;;;8.04;100.00;99371.56;2607749;28;20049;-74
2022/07/17 04:37:49;;;;;;;3.40;2.60;;;;;;;8.09;100.00;99373.28;2608064;28;20652;-74
2022/07/17 04:39:04;;;;;;;3.72;2.50;;;;;;;8.32;100.00;99370.63;2607746;28;20044;-74
2022/07/17 04:40:20;;;;;;;4.10;2.60;;;;;;;8.36;100.00;99364.53;2607354;28;20045;-74
2022/07/17 04:41:35;;;;;;;4.22;2.75;;;;;;;8.39;100.00;99363.66;2608144;28;20048;-74
2022/07/17 04:42:51;;;;;;;4.28;2.40;;;;;;;8.57;100.00;99366.19;2607958;28;20049;-74
2022/07/17 04:44:07;;;;;;;4.78;2.50;;;;;;;8.47;100.00;99367.09;2608300;28;20102;-73
2022/07/17 04:45:22;;;;;;;3.78;2.28;;;;;;;8.41;100.00;99367.97;2607551;28;20041;-73
2022/07/17 04:46:38;;;;;;;6.47;2.40;;;;;;;8.42;100.00;99372.31;2607875;28;20045;-73
2022/07/17 04:47:53;;;;;;;5.45;2.53;;;;;;;8.47;100.00;99373.19;2606989;28;20537;-73
2022/07/17 04:49:09;;;;;;;3.92;2.38;;;;;;;8.46;100.00;99374.06;2601185;28;20142;-78
2022/07/17 04:50:25;;;;;;;4.88;2.38;;;;;;;8.60;100.00;99381.00;2604424;28;20079;-75
2022/07/17 04:51:40;;;;;;;5.05;2.30;;;;;;;8.72;100.00;99375.69;2607368;28;20930;-74
2022/07/17 04:52:56;;;;;;;4.22;2.45;;;;;;;8.78;100.00;99379.16;2607397;28;20103;-76
2022/07/17 04:54:12;;;;;;;4.32;2.50;;;;;;;8.74;100.00;99381.78;2607207;28;20052;-74
2022/07/17 04:55:28;;;;;;;5.07;2.33;;;;;;;8.78;100.00;99379.16;2607649;28;20090;-73
2022/07/17 04:56:44;;;;;;;3.97;2.33;;;;;;;8.71;100.00;99380.94;2607698;28;20131;-73
2022/07/17 04:57:59;;;;;;;2.67;2.10;;;;;;;8.74;100.00;99378.28;2606907;28;20118;-74
2022/07/17 04:59:15;;;;;;;4.85;2.80;;;;;;;8.71;100.00;99387.00;2608194;28;20087;-74
2022/07/17 05:00:31;;;;;;;5.57;2.30;;;;;;;8.67;100.00;99384.44;2607197;28;20053;-73
2022/07/17 05:01:46;;;;;;;4.80;2.38;;;;;;;8.82;100.00;99384.34;2607074;28;20049;-76
2022/07/17 05:03:02;;;;;;;6.07;2.60;;;;;;;8.89;100.00;99383.44;2606494;28;20083;-74
2022/07/17 05:04:18;;;;;;;5.10;2.45;;;;;;;8.97;100.00;99375.53;2607072;28;20049;-74
2022/07/17 05:05:34;;;;;;;3.42;2.33;;;;;;;9.09;100.00;99378.97;2606359;28;20049;-74
2022/07/17 05:06:49;;;;;;;7.65;2.40;;;;;;;9.09;100.00;99371.13;2607541;28;20045;-74
2022/07/17 05:08:08;;;;;;;2.88;2.15;;;;;;;9.19;100.00;99383.25;2606765;28;20106;-78
2022/07/17 05:09:24;;;;;;;3.85;2.65;;;;;;;9.20;100.00;99377.16;2606810;28;20055;-74
2022/07/17 05:10:39;;;;;;;5.60;2.60;;;;;;;9.32;100.00;99376.16;2607185;28;20091;-74
2022/07/17 05:11:55;;;;;;;2.80;2.50;;;;;;;9.43;100.00;99376.09;2606859;28;20044;-74
2022/07/17 05:13:12;;;;;;;5.70;2.60;;;;;;;9.48;100.00;99376.94;2606674;28;20049;-74
2022/07/17 05:14:28;;;;;;;3.42;2.05;;;;;;;9.60;100.00;99382.06;2607464;28;20538;-73
2022/07/17 05:15:47;;;;;;;6.43;2.53;;;;;;;9.69;100.00;99382.84;2607740;28;20061;-73
2022/07/17 05:17:02;;;;;;;4.10;2.17;;;;;;;9.70;100.00;99381.94;2606350;28;20045;-73
2022/07/17 05:18:18;;;;;;;4.47;2.50;;;;;;;9.69;100.00;99383.72;2602810;28;20401;-75
2022/07/17 05:19:35;;;;;;;5.72;2.30;;;;;;;9.75;100.00;99380.19;2605633;28;20041;-76
2022/07/17 05:20:50;;;;;;;3.10;2.10;;;;;;;9.74;100.00;99381.06;2605182;28;20064;-75
2022/07/17 05:22:06;;;;;;;3.58;2.20;;;;;;;9.74;100.00;99379.28;2606355;28;20736;-74
2022/07/17 05:23:21;;;;;;;3.53;2.13;;;;;;;9.85;100.00;99371.38;2605508;28;20053;-74
2022/07/17 05:24:37;;;;;;;4.22;2.10;;;;;;;9.94;100.00;99378.25;2606885;28;20080;-73
2022/07/17 05:25:53;;;;;;;3.15;1.75;;;;;;;9.93;100.00;99375.63;2606161;28;20053;-74
2022/07/17 05:27:08;;;;;;;3.58;2.22;;;;;;;9.93;100.00;99376.53;2606990;28;20052;-76
2022/07/17 05:28:24;;;;;;;5.75;2.30;;;;;;;9.94;100.00;99378.25;2607124;28;20080;-74
2022/07/17 05:29:40;;;;;;;5.72;2.50;;;;;;;10.04;100.00;99379.88;2607573;28;20067;-74
2022/07/17 05:30:55;;;;;;;4.72;2.50;;;;;;;10.04;100.00;99384.25;2607529;28;20432;-74
2022/07/17 05:32:11;;;;;;;3.15;2.25;;;;;;;10.09;100.00;99371.13;2607500;28;20068;-74
2022/07/17 05:33:27;;;;;;;5.60;2.28;;;;;;;10.17;100.00;99379.72;2606750;28;20048;-74
2022/07/17 05:34:43;;;;;;;4.53;2.30;;;;;;;10.10;100.00;99383.31;2606872;28;20045;-75
2022/07/17 05:35:58;;;;;;;5.57;2.53;;;;;;;10.29;100.00;99381.38;2606491;28;20119;-74
2022/07/17 05:37:14;;;;;;;3.28;1.98;;;;;;;10.29;100.00;99382.22;2606957;28;20084;-74
2022/07/17 05:38:29;;;;;;;7.63;2.38;;;;;;;10.32;100.00;99384.78;2606159;28;20541;-73
2022/07/17 05:39:45;;;;;;;3.78;2.20;;;;;;;10.50;100.00;99382.88;2607296;28;20053;-74
2022/07/17 05:41:02;;;;;;;5.47;2.28;;;;;;;10.55;100.00;99381.06;2607061;28;20052;-74
2022/07/17 05:42:17;;;;;;;2.47;2.28;;;;;;;10.57;100.00;99384.53;2607347;28;20415;-74
2022/07/17 05:43:33;;;;;;;5.00;2.10;;;;;;;10.57;100.00;99384.53;2607035;28;20045;-74
2022/07/17 05:44:48;;;;;;;4.10;2.45;;;;;;;10.66;100.00;99387.94;2606936;28;20541;-74
2022/07/17 05:46:04;;;;;;;4.15;2.20;;;;;;;10.60;100.00;99387.09;2607593;28;20045;-74
2022/07/17 05:47:20;;;;;;;4.95;2.22;;;;;;;10.69;100.00;99387.88;2606807;28;20046;-74
2022/07/17 05:48:35;;;;;;;5.03;2.28;;;;;;;10.77;100.00;99388.66;2606431;28;20041;-74
2022/07/17 05:49:51;;;;;;;3.50;2.40;;;;;;;10.87;100.00;99390.25;2607198;28;20044;-74
2022/07/17 05:51:07;;;;;;;2.63;2.00;;;;;;;11.01;100.00;99386.56;2606939;28;20056;-73
2022/07/17 05:52:22;;;;;;;3.40;2.00;;;;;;;11.06;100.00;99391.75;2600680;28;20397;-75
2022/07/17 05:53:38;;;;;;;4.97;2.22;;;;;;;11.01;100.00;99390.06;2603887;28;20075;-75
2022/07/17 05:54:54;;;;;;;3.80;2.20;;;;;;;11.08;100.00;99396.06;2606531;28;20045;-74
2022/07/17 05:56:09;;;;;;;2.83;2.33;;;;;;;11.19;100.00;99387.19;2606882;28;20044;-75
2022/07/17 05:57:25;;;;;;;2.70;1.90;;;;;;;11.23;100.00;99399.34;2607012;28;20052;-76
2022/07/17 05:58:40;;;;;;;3.47;2.50;;;;;;;11.25;100.00;99395.84;2607434;28;20052;-75